createdAt,value
2022-11-26T00:03:28.506Z,7.24
2022-11-26T00:08:35.551Z,7.42
2022-11-26T00:13:38.136Z,7.39
2022-11-26T00:18:40.701Z,7.56
2022-11-26T00:23:46.590Z,7.72
2022-11-26T00:28:52.512Z,7.91
2022-11-26T00:33:55.371Z,7.82
2022-11-26T00:39:03.013Z,7.98
2022-11-26T00:44:14.580Z,7.64
2022-11-26T00:49:19.435Z,7.84
2022-11-26T00:54:24.283Z,7.67
2022-11-26T00:59:26.972Z,7.62
2022-11-26T01:04:29.654Z,7.63
2022-11-26T01:09:34.173Z,7.35
2022-11-26T01:14:36.934Z,7.62
2022-11-26T01:19:39.638Z,7.78
2022-11-26T01:24:43.563Z,7.97
2022-11-26T01:29:46.257Z,7.67
2022-11-26T01:34:48.977Z,7.70
2022-11-26T01:39:52.974Z,7.59
2022-11-26T01:44:55.565Z,7.76
2022-11-26T01:50:35.738Z,7.85
2022-11-26T01:55:42.673Z,7.91
2022-11-26T02:00:45.637Z,7.76
2022-11-26T02:05:57.180Z,7.87
2022-11-26T02:11:03.572Z,7.74
2022-11-26T02:16:17.376Z,7.38
2022-11-26T02:21:27.483Z,7.34
2022-11-26T02:27:08.477Z,7.45
2022-11-26T02:32:17.521Z,7.37
2022-11-26T02:37:26.388Z,7.50
2022-11-26T02:42:33.336Z,7.34
2022-11-26T02:47:40.817Z,7.35
2022-11-26T02:52:44.448Z,7.83
2022-11-26T02:57:49.352Z,7.75
2022-11-26T03:02:59.588Z,7.62
2022-11-26T03:08:03.787Z,7.88
2022-11-26T03:13:06.592Z,7.65
2022-11-26T03:18:10.592Z,7.58
2022-11-26T03:23:13.308Z,7.67
2022-11-26T03:28:15.888Z,7.77
2022-11-26T03:33:20.163Z,7.76
2022-11-26T03:38:22.821Z,8.21
2022-11-26T03:43:25.550Z,7.88
2022-11-26T03:48:29.463Z,8.02
2022-11-26T03:53:32.123Z,7.80
2022-11-26T03:58:34.690Z,7.89
2022-11-26T04:03:39.182Z,7.93
2022-11-26T04:08:41.783Z,8.07
2022-11-26T04:13:44.459Z,7.76
2022-11-26T04:18:48.420Z,7.66
2022-11-26T04:23:51.107Z,7.51
2022-11-26T04:28:53.723Z,8.07
2022-11-26T04:33:57.618Z,7.65
2022-11-26T04:39:00.220Z,7.87
2022-11-26T04:44:02.856Z,7.91
2022-11-26T04:49:06.923Z,8.11
2022-11-26T04:54:13.024Z,7.76
2022-11-26T04:59:15.970Z,6.83
2022-11-26T05:04:20.208Z,7.42
2022-11-26T05:09:23.190Z,6.86
2022-11-26T05:14:26.086Z,7.22
2022-11-26T05:19:30.104Z,7.87
2022-11-26T05:24:32.686Z,7.74
2022-11-26T05:29:35.299Z,7.87
2022-11-26T05:34:39.340Z,7.25
2022-11-26T05:39:41.999Z,7.54
2022-11-26T05:44:44.554Z,6.57
2022-11-26T05:49:48.437Z,5.86
2022-11-26T05:54:51.080Z,6.28
2022-11-26T05:59:53.710Z,6.16
2022-11-26T06:04:57.637Z,6.23
2022-11-26T06:10:00.280Z,5.98
2022-11-26T06:15:02.923Z,5.81
2022-11-26T06:20:08.218Z,6.55
2022-11-26T06:25:13.773Z,6.05
2022-11-26T06:30:16.447Z,5.42
2022-11-26T06:35:21.630Z,5.39
2022-11-26T06:40:24.283Z,6.08
2022-11-26T06:45:27.111Z,6.36
2022-11-26T06:50:31.093Z,6.64
2022-11-26T06:55:33.681Z,6.82
2022-11-26T07:00:36.269Z,7.04
2022-11-26T07:05:40.155Z,6.82
2022-11-26T07:10:49.153Z,6.72
2022-11-26T07:15:52.099Z,6.35
2022-11-26T07:20:56.054Z,6.28
2022-11-26T07:25:59.415Z,6.67
2022-11-26T07:31:04.887Z,6.18
2022-11-26T07:36:15.055Z,6.18
2022-11-26T07:41:20.056Z,6.13
2022-11-26T07:46:25.366Z,6.14
2022-11-26T07:51:31.505Z,5.34
2022-11-26T07:56:34.736Z,5.21
2022-11-26T08:01:40.584Z,4.95
2022-11-26T08:06:45.668Z,5.13
2022-11-26T08:11:48.545Z,5.13
2022-11-26T08:16:51.236Z,5.38
2022-11-26T08:21:55.192Z,5.66
2022-11-26T08:27:00.800Z,6.92
2022-11-26T08:32:03.570Z,7.36
2022-11-26T08:37:07.451Z,6.97
2022-11-26T08:42:10.016Z,7.14
2022-11-26T08:47:14.210Z,7.43
2022-11-26T08:52:18.120Z,7.56
2022-11-26T08:57:20.744Z,7.21
2022-11-26T09:02:23.480Z,7.22
2022-11-26T09:07:27.435Z,7.50
2022-11-26T09:12:29.984Z,7.45
2022-11-26T09:17:32.562Z,7.42
2022-11-26T09:22:36.825Z,7.51
2022-11-26T09:27:39.542Z,7.58
2022-11-26T09:32:42.138Z,7.81
2022-11-26T09:37:50.166Z,7.61
2022-11-26T09:43:06.895Z,8.12
2022-11-26T09:48:16.284Z,8.13
2022-11-26T09:53:29.435Z,8.49
2022-11-26T09:58:41.566Z,9.30
2022-11-26T10:03:44.203Z,10.34
2022-11-26T10:09:04.681Z,12.45
2022-11-26T10:14:19.718Z,13.52
2022-11-26T10:19:31.533Z,14.77
2022-11-26T10:24:41.895Z,16.14
2022-11-26T10:29:53.117Z,15.88
2022-11-26T10:34:57.380Z,13.52
2022-11-26T10:40:17.139Z,12.19
2022-11-26T10:45:22.044Z,11.45
2022-11-26T10:55:52.697Z,10.69
2022-11-26T11:01:02.184Z,10.91
2022-11-26T11:06:13.711Z,11.05
2022-11-26T11:11:21.564Z,11.26
2022-11-26T11:16:28.516Z,14.41
2022-11-26T11:21:34.740Z,16.18
2022-11-26T11:26:44.269Z,19.65
2022-11-26T11:31:48.501Z,19.75
2022-11-26T11:37:02.482Z,19.22
2022-11-26T11:42:23.641Z,20.48
2022-11-26T11:47:35.407Z,22.57
2022-11-26T11:52:54.539Z,21.07
2022-11-26T11:58:14.485Z,23.38
2022-11-26T12:03:49.841Z,24.43
2022-11-26T12:09:03.490Z,25.27
2022-11-26T12:14:14.495Z,25.54
2022-11-26T12:19:24.568Z,22.90
2022-11-26T12:24:44.919Z,23.27
2022-11-26T12:29:54.190Z,22.10
2022-11-26T12:34:59.149Z,22.29
2022-11-26T12:40:05.632Z,22.40
2022-11-26T12:45:18.570Z,23.08
2022-11-26T12:50:27.227Z,22.59
2022-11-26T12:55:37.161Z,23.32
2022-11-26T13:00:44.450Z,22.51
2022-11-26T13:05:57.133Z,21.98
2022-11-26T13:11:12.476Z,19.52
2022-11-26T13:16:24.539Z,15.15
2022-11-26T13:21:39.509Z,14.40
2022-11-26T13:26:57.742Z,14.73
2022-11-26T13:32:20.231Z,14.40
2022-11-26T13:37:42.553Z,14.10
2022-11-26T13:43:03.108Z,13.68
2022-11-26T13:48:11.756Z,13.83
2022-11-26T13:53:25.082Z,13.25
2022-11-26T13:58:33.818Z,13.16
2022-11-26T14:03:48.409Z,12.81
2022-11-26T14:08:51.707Z,12.57
2022-11-26T14:14:33.550Z,12.40
2022-11-26T14:20:00.846Z,12.18
2022-11-26T14:25:06.075Z,12.30
2022-11-26T14:30:22.597Z,12.24
2022-11-26T14:35:33.587Z,12.72
2022-11-26T14:40:38.803Z,12.93
2022-11-26T14:45:47.063Z,12.15
2022-11-26T14:50:49.813Z,11.36
2022-11-26T14:55:53.995Z,11.60
2022-11-26T15:01:18.961Z,11.79
2022-11-26T15:06:26.057Z,11.80
2022-11-26T15:11:28.731Z,11.23
2022-11-26T15:16:37.925Z,11.07
2022-11-26T15:21:41.918Z,10.81
2022-11-26T15:26:47.492Z,10.86
2022-11-26T15:31:51.405Z,10.59
2022-11-26T15:36:54.070Z,10.14
2022-11-26T15:42:01.535Z,10.05
2022-11-26T15:47:06.765Z,10.16
2022-11-26T15:52:13.108Z,10.18
2022-11-26T15:57:23.923Z,10.05
2022-11-26T16:02:31.272Z,9.53
2022-11-26T16:07:34.845Z,9.33
2022-11-26T16:12:40.665Z,9.43
2022-11-26T16:17:44.733Z,9.05
2022-11-26T16:22:52.957Z,8.81
2022-11-26T16:28:10.155Z,8.56
2022-11-26T16:33:34.489Z,8.68
2022-11-26T16:38:37.796Z,8.55
2022-11-26T16:44:39.764Z,8.29
2022-11-26T16:55:36.945Z,9.07
2022-11-26T17:01:14.319Z,8.28
2022-11-26T17:07:03.663Z,8.36
2022-11-26T17:12:54.553Z,7.40
2022-11-26T17:30:51.436Z,6.70
2022-11-26T17:42:22.751Z,6.25
2022-11-26T17:47:27.801Z,6.10
2022-11-26T17:52:40.076Z,6.83
2022-11-26T17:57:52.686Z,6.61
2022-11-26T18:03:02.323Z,6.34
2022-11-26T18:08:07.121Z,6.29
2022-11-26T18:13:10.526Z,6.59
2022-11-26T18:25:20.033Z,5.68
2022-11-26T18:43:16.076Z,5.68
2022-11-26T19:01:33.500Z,6.05
2022-11-26T19:06:36.127Z,5.85
2022-11-26T19:11:38.804Z,6.04
2022-11-26T19:16:49.334Z,5.17
2022-11-26T19:21:55.520Z,5.13
2022-11-26T19:27:00.550Z,4.92
2022-11-26T19:32:04.473Z,4.85
2022-11-26T19:37:07.081Z,4.14
2022-11-26T19:42:09.854Z,4.43
2022-11-26T19:47:13.739Z,4.38
2022-11-26T19:52:16.304Z,3.90
2022-11-26T19:57:19.177Z,3.51
2022-11-26T20:02:23.203Z,4.42
2022-11-26T20:07:25.861Z,4.02
2022-11-26T20:12:28.551Z,4.31
2022-11-26T20:17:32.510Z,4.54
2022-11-26T20:22:37.446Z,4.50
2022-11-26T20:27:40.242Z,4.40
2022-11-26T20:32:45.418Z,3.96
2022-11-26T20:37:48.085Z,3.82
2022-11-26T20:42:51.392Z,3.74
2022-11-26T20:47:57.120Z,3.43
2022-11-26T20:52:59.784Z,3.08
2022-11-26T20:58:02.377Z,3.39
2022-11-26T21:03:06.355Z,3.50
2022-11-26T21:08:09.022Z,3.48
2022-11-26T21:13:14.452Z,4.31
2022-11-26T21:18:18.383Z,4.06
2022-11-26T21:23:20.932Z,4.47
2022-11-26T21:28:23.521Z,4.68
2022-11-26T21:33:27.409Z,4.50
2022-11-26T21:38:29.951Z,3.22
2022-11-26T21:43:32.770Z,3.45
2022-11-26T21:48:36.711Z,3.58
2022-11-26T21:53:39.580Z,3.47
2022-11-26T21:58:42.457Z,3.82
2022-11-26T22:03:49.987Z,3.28
2022-11-26T22:08:52.937Z,3.02
2022-11-26T22:13:56.149Z,2.94
2022-11-26T22:19:01.470Z,2.12
2022-11-26T22:24:05.324Z,2.37
2022-11-26T22:29:07.908Z,2.88
2022-11-26T22:34:14.432Z,3.54
2022-11-26T22:39:20.155Z,3.57
2022-11-26T22:44:23.055Z,3.82
2022-11-26T22:49:27.406Z,3.17
2022-11-26T22:54:29.943Z,3.58
2022-11-26T22:59:32.483Z,3.77
2022-11-26T23:04:36.383Z,3.75
2022-11-26T23:09:43.761Z,3.64
2022-11-26T23:14:49.057Z,3.16
2022-11-26T23:19:52.950Z,3.75
2022-11-26T23:24:55.551Z,3.48
2022-11-26T23:29:58.349Z,3.60
2022-11-26T23:35:02.958Z,3.01
2022-11-26T23:40:07.402Z,2.82
2022-11-26T23:45:10.775Z,3.09
2022-11-26T23:50:15.561Z,3.39
2022-11-26T23:55:18.313Z,3.64
